• Join FlightAware (Why Join?)
  • Login
  • US Flag 
Gobble Gobble! 
03:32AM EST


 

Airport Tracker/Info


-or-


 

Live Flight TrackerFlight Track Log ✈ N830QS ✈ 13-Jan-2014 ✈ KTEB - CYOW

Flight Track Log - Related Links

Times and Time Zones

All times are in EST time to prevent confusion due to time zone crossing. See the N830QS flight status page for this flight to view local times or setup timezone preferences in your user account.

Time Position Orientation Groundspeed Altitude Reporting Facility
EST Latitude Longitude Course Direction KTS MPH feet Rate Location/Type
02:29PM 40.8333 -74.1000 346° North 191 220 1,500  Level New York TRACON
02:30PM 40.8167 -74.1667 252° West 188 216 1,800 1,680 Climbing New York TRACON
02:31PM 40.8167 -74.2333 270° West 192 221 4,700 2,160 Climbing New York TRACON
02:32PM 40.8833 -74.2500 349° North 294 338 6,000 600 Climbing New York TRACON
02:33PM 40.9667 -74.2167 17° North 304 350 6,000  Level New York TRACON
02:34PM 41.0333 -74.1833 21° North 304 350 6,000 1,800 Level New York TRACON
02:35PM 41.2272 -74.1875 346° North  Level Estimated
02:36PM 41.1328 -73.9925 55° Northeast 343 395 11,500  Level Boston Center
02:37PM 41.1781 -73.8664 64° Northeast 378 435 14,500 2,940 Climbing Boston Center
02:38PM 41.2256 -73.7356 64° Northeast 394 453 17,500 2,880 Climbing Boston Center
02:39PM 41.2769 -73.5969 64° Northeast 404 465 20,400 2,640 Climbing Boston Center
02:40PM 41.3278 -73.4578 64° Northeast 416 479 22,900 1,440 Climbing Boston Center
02:41PM 41.4278 -73.3708 33° Northeast 428 493 23,400 960 Climbing Boston Center
02:42PM 41.5189 -73.2658 41° Northeast 432 497 25,000 1,440 Climbing Boston Center
02:43PM 41.6042 -73.2072 27° Northeast 413 475 26,400 1,320 Climbing Boston Center
02:44PM 41.7311 -73.2192 356° North 382 440 27,800 1,140 Climbing Boston Center
02:45PM 41.8394 -73.2294 356° North 387 445 28,800 540 Climbing Boston Center
02:47PM 41.9506 -73.2411 356° North 395 455 29,000 60 Climbing Boston Center
02:48PM 42.0692 -73.2522 356° North 417 480 29,000 240 Level Boston Center
02:49PM 42.1861 -73.2728 353° North 425 489 29,600 900 Climbing Boston Center
02:50PM 42.2939 -73.3078 346° North 402 463 30,900 1,140 Climbing Boston Center
02:51PM 42.4000 -73.3428 346° North 392 451 32,000 540 Climbing Boston Center
02:52PM 42.5081 -73.3772 347° North 393 452 32,000  Level Boston Center
02:53PM 42.6081 -73.4364 336° Northwest 391 450 32,000  Level Boston Center
02:54PM 42.7003 -73.5103 330° Northwest 384 442 32,000  Level Boston Center
02:55PM 42.7939 -73.5844 330° Northwest 388 447 32,000  Level Boston Center
02:56PM 42.8914 -73.6631 329° Northwest 389 448 32,000  Level Boston Center
02:57PM 42.9850 -73.7372 330° Northwest 391 450 32,000  Level Boston Center
02:58PM 43.0789 -73.8142 329° Northwest 394 453 32,000  Level Boston Center
02:59PM 43.1728 -73.8914 329° Northwest 396 456 32,000  Level Boston Center
03:00PM 43.2869 -73.9850 329° Northwest 400 460 32,000 -60 Level Boston Center
03:01PM 43.3825 -74.0642 329° Northwest 402 463 31,900 -1,140 Descending Boston Center
03:02PM 43.4769 -74.1417 329° Northwest 400 460 29,800 -1,920 Descending Boston Center
03:03PM 43.5725 -74.2222 329° Northwest 405 466 28,000 -900 Descending Boston Center
03:04PM 43.6706 -74.3025 329° Northwest 411 473 28,000  Level Boston Center
03:05PM 43.7650 -74.3825 329° Northwest 403 464 28,000  Level Boston Center
03:06PM 43.8608 -74.4619 329° Northwest 403 464 28,000  Level Boston Center
03:07PM 43.9578 -74.5436 329° Northwest 407 468 28,000 -300 Level Boston Center
03:08PM 44.0739 -74.6425 329° Northwest 409 471 27,400 -1,320 Descending Boston Center
03:09PM 44.1706 -74.7244 329° Northwest 410 472 25,300 -2,040 Descending Boston Center
03:10PM 44.2667 -74.8083 328° Northwest 411 473 23,300 -2,040 Descending Boston Center
03:11PM 44.3583 -74.8858 329° Northwest 401 461 21,300 -2,040 Descending Boston Center
03:12PM 44.4492 -74.9661 328° Northwest 392 451 19,300 -2,100 Descending Boston Center
03:13PM 44.5356 -75.0431 328° Northwest 379 436 17,100 -2,040 Descending Boston Center
03:14PM 44.6214 -75.1142 329° Northwest 365 420 15,100 -2,100 Descending Boston Center
03:15PM 44.6667 -75.1500 331° Northwest 360 414 13,900 -2,220 Descending Montreal Center
03:16PM 44.7500 -75.2333 325° Northwest 340 391 11,800 -2,040 Descending Montreal Center
03:17PM 44.8167 -75.2833 332° Northwest 320 368 9,900 -1,740 Descending Montreal Center
03:18PM 44.8833 -75.3500 325° Northwest 250 288 8,400 -960 Descending Montreal Center
03:19PM 44.9500 -75.4000 332° Northwest 270 311 8,000 -240 Descending Montreal Center
03:20PM 45.0167 -75.4167 350° North 290 334 8,000  Level Montreal Center
03:21PM 45.1000 -75.4167 360° North 290 334 8,000  Level Montreal Center
03:22PM 45.1833 -75.4167 360° North 280 322 8,000  Level Montreal Center
03:23PM 45.2500 -75.4000 10° North 230 265 8,000  Level Montreal Center
03:24PM 45.3000 -75.3500 35° Northeast 270 311 8,000 -780 Level Montreal Center
03:25PM 45.3333 -75.2500 65° Northeast 260 299 6,500 -1,020 Descending Montreal Center
03:26PM 45.3833 -75.1833 43° Northeast 270 311 6,000 -300 Descending Montreal Center
03:27PM 45.4333 -75.1833 360° North 210 242 6,000 -840 Level Montreal Center
03:28PM 45.4500 -75.2500 290° West 180 207 4,400 -1,500 Descending Montreal Center
03:29PM 45.4500 -75.3167 270° West 170 196 3,100 -720 Descending Montreal Center
03:30PM 45.4333 -75.3667 245° Southwest 160 184 3,000 -60 Descending Montreal Center
03:31PM 45.4000 -75.4167 226° Southwest 160 184 3,000  Level Montreal Center
03:32PM 45.3833 -75.4833 250° West 150 173 3,000 -360 Level Montreal Center
03:33PM 45.3667 -75.5167 235° Southwest 130 150 2,300 -720 Descending Montreal Center
03:34PM 45.3333 -75.5667 227° Southwest 140 161 1,600 -660 Descending Montreal Center
03:35PM 45.3167 -75.6167 245° Southwest 120 138 1,000 -600 Descending Montreal Center
03:36PM 45.3000 -75.6667 245° Southwest 110 127 400 -180 Descending Montreal Center
03:39PM 45.3000 -75.6667 90° East 10 12 400  Level Montreal Center